M I D A S
Marine Information and Data Acquisition System
Tripno 974 of the Zeeleeuw from 2005-10-19 06:32:24 to 2005-10-19 13:12:36
Back to CruiseResearch ActivitiesStationsMapUnderway DataData graphs

EquipmentUnitsComment
TimeDGPSUTC
LatitudeDGPSDM.mWGS84
LongitudeDGPSDM.mWGS84
HeadingGyrodeg 
SOGDGPSknotsSpeed over ground
COGDGPSdegCourse over ground
DepthEcho soundermeters200 kHz
Missing or incorrect values are displayed as -999
Navigation data collected by the RV Zeeleeuw from 2005-10-19 06:33:04 to 2005-10-19 13:22:30
Time Latitude Longitude Heading SOG COG Depth
2005-10-19 06:34:10 51°13.621 2°56.033 116.6 3.5 295 -999
2005-10-19 06:35:10 51°13.649 2°55.93 118.9 4.9 294 -999
2005-10-19 06:36:10 51°13.683 2°55.809 109.5 4.7 290 -999
2005-10-19 06:37:10 51°13.695 2°55.735 72.4 0.7 7 11.8
2005-10-19 06:38:10 51°13.735 2°55.734 347.8 4 336 8.9
2005-10-19 06:39:10 51°13.836 2°55.631 335.9 8.9 334 8.6
2005-10-19 06:40:10 51°13.984 2°55.524 341.1 10.1 336 8.5
2005-10-19 06:41:10 51°14.142 2°55.404 338.2 11 332 8.8
2005-10-19 06:42:10 51°14.285 2°55.214 317.3 11.4 312 8.9
2005-10-19 06:43:10 51°14.42 2°54.986 327.3 12.5 321 8.8
2005-10-19 06:44:10 51°14.571 2°54.741 321 13.3 311 8.2
2005-10-19 06:45:10 51°14.727 2°54.494 327.3 13.2 315 7.9
2005-10-19 06:46:10 51°14.871 2°54.229 319.3 13.2 309 5.6
2005-10-19 06:47:08 51°15.001 2°53.97 320.4 12.8 311 7.1
2005-10-19 06:48:10 51°15.165 2°53.738 333.9 12.9 321 7.6
2005-10-19 06:49:10 51°15.313 2°53.475 320.6 13.5 311 8.4
2005-10-19 06:50:10 51°15.443 2°53.179 314.2 13.7 305 9.1
2005-10-19 06:51:10 51°15.567 2°52.876 310.7 13.8 300 9.7
2005-10-19 06:52:10 51°15.681 2°52.557 309.2 13.9 299 10.4
2005-10-19 06:53:10 51°15.79 2°52.235 308.4 13.8 298 10.9
2005-10-19 06:54:10 51°15.892 2°51.907 303.5 13.8 296 11.1
2005-10-19 06:55:10 51°15.992 2°51.577 304.4 13.9 296 11.3
2005-10-19 06:56:10 51°16.094 2°51.247 305 13.9 296 11.3
2005-10-19 06:57:10 51°16.195 2°50.922 305.8 13.5 297 9.6
2005-10-19 06:58:10 51°16.295 2°50.604 305.8 13.4 297 8.3
2005-10-19 06:59:10 51°16.401 2°50.295 311.7 13.7 303 9
2005-10-19 07:00:10 51°16.509 2°49.972 307 13.6 299 9.8
2005-10-19 07:01:10 51°16.642 2°49.69 328.8 12.9 326 12.8
2005-10-19 07:02:10 51°16.841 2°49.625 2.8 11.9 354 9.5
2005-10-19 07:03:10 51°17.035 2°49.668 24.3 11.9 18 8.6
2005-10-19 07:04:10 51°17.222 2°49.788 30.3 11.9 24 9.5
2005-10-19 07:05:10 51°17.404 2°49.929 36.9 12 31 10.4
2005-10-19 07:06:10 51°17.574 2°50.101 39.7 12 32 11
2005-10-19 07:07:08 51°17.738 2°50.261 39 12 31 11.3
2005-10-19 07:08:10 51°17.914 2°50.43 39.4 11.9 32 11.4
2005-10-19 07:09:10 51°18.085 2°50.592 38.2 11.9 30 11.6
2005-10-19 07:10:10 51°18.256 2°50.754 38.3 11.9 31 11.7
2005-10-19 07:11:10 51°18.426 2°50.914 37.7 11.9 30 12.3
2005-10-19 07:12:10 51°18.598 2°51.074 38.8 11.9 30 12.6
2005-10-19 07:13:10 51°18.768 2°51.231 38.7 11.9 29 12.9
2005-10-19 07:14:10 51°18.94 2°51.386 38 11.8 29 12.9
2005-10-19 07:15:10 51°19.11 2°51.542 38.4 11.8 30 13.9
2005-10-19 07:16:10 51°19.28 2°51.697 38.3 11.7 30 14
2005-10-19 07:17:10 51°19.448 2°51.858 41.4 11.7 33 14.3
2005-10-19 07:18:10 51°19.613 2°52.029 41.7 11.7 33 14.4
2005-10-19 07:19:10 51°19.779 2°52.198 42.2 11.8 33 14.5
2005-10-19 07:20:10 51°19.943 2°52.367 41.3 11.7 34 14.6
2005-10-19 07:21:10 51°20.108 2°52.533 40.6 11.6 32 14.9
2005-10-19 07:22:10 51°20.274 2°52.693 39.9 11.7 32 14.9
2005-10-19 07:23:10 51°20.442 2°52.845 38.1 11.6 29 14.9
2005-10-19 07:24:10 51°20.621 2°52.966 27.6 11.9 17 15
2005-10-19 07:25:10 51°20.809 2°53.063 27.2 11.9 17 15.2
2005-10-19 07:26:10 51°20.997 2°53.157 27.4 11.9 16 14.8
2005-10-19 07:27:10 51°21.188 2°53.243 25.9 11.9 15 14.5
2005-10-19 07:28:10 51°21.38 2°53.33 26.1 12 16 14.3
2005-10-19 07:29:10 51°21.573 2°53.409 23.9 12 14 15.1
2005-10-19 07:30:10 51°21.766 2°53.483 24.2 11.9 14 16.3
2005-10-19 07:31:10 51°21.96 2°53.564 24.6 12.1 15 17.7
2005-10-19 07:32:10 51°22.156 2°53.643 24.4 12.1 14 18.7
2005-10-19 07:33:10 51°22.355 2°53.704 19.1 12.2 9 20.8
2005-10-19 07:34:10 51°22.554 2°53.757 19.5 12.1 10 22.1
2005-10-19 07:35:10 51°22.752 2°53.815 20.1 12.2 10 21.5
2005-10-19 07:36:10 51°22.95 2°53.872 18.2 12.1 9 15.3
2005-10-19 07:37:10 51°23.147 2°53.919 18.2 12 9 20.8
2005-10-19 07:38:10 51°23.346 2°53.967 18.3 12 10 19.1
2005-10-19 07:39:10 51°23.542 2°54.015 17.8 12 7 18
2005-10-19 07:40:10 51°23.738 2°54.062 18.4 11.8 9 18.9
2005-10-19 07:41:10 51°23.933 2°54.11 18.4 12 10 20.2
2005-10-19 07:42:10 51°24.128 2°54.156 18 11.9 8 20.3
2005-10-19 07:43:10 51°24.325 2°54.201 17.4 12 7 20.5
2005-10-19 07:44:10 51°24.52 2°54.252 20.2 11.8 9 17.4
2005-10-19 07:45:10 51°24.712 2°54.307 19.2 11.5 11 16
2005-10-19 07:46:10 51°24.906 2°54.358 18 11.8 9 17.3
2005-10-19 07:47:10 51°25.102 2°54.408 17.5 11.9 8 19.1
2005-10-19 07:48:10 51°25.3 2°54.46 18 12 10 19.4
2005-10-19 07:49:10 51°25.494 2°54.511 17.9 11.8 9 18.6
2005-10-19 07:50:10 51°25.689 2°54.565 18 11.9 9 20.2
2005-10-19 07:51:10 51°25.885 2°54.608 16.8 11.9 7 22.1
2005-10-19 07:52:10 51°26.08 2°54.655 17.9 12 7 23
2005-10-19 07:53:10 51°26.274 2°54.714 21.2 11.7 12 24.2
2005-10-19 07:54:10 51°26.464 2°54.776 20 11.8 10 25.4
2005-10-19 07:55:10 51°26.655 2°54.831 19 11.8 10 26.9
2005-10-19 07:56:10 51°26.848 2°54.881 18.5 11.7 10 25.4
2005-10-19 07:57:10 51°27.042 2°54.926 16.6 11.8 8 26.3
2005-10-19 07:58:10 51°27.235 2°54.969 18.1 11.8 8 27.5
2005-10-19 07:59:10 51°27.429 2°55.014 19 11.8 8 28.4
2005-10-19 08:00:10 51°27.624 2°55.059 17.9 11.8 8 27.4
2005-10-19 08:01:10 51°27.816 2°55.106 18.7 11.6 8 27
2005-10-19 08:02:10 51°28.009 2°55.151 18.4 11.7 8 26.1
2005-10-19 08:03:10 51°28.201 2°55.195 18.7 11.7 9 23.8
2005-10-19 08:04:10 51°28.392 2°55.248 19.7 11.6 11 21.5
2005-10-19 08:05:10 51°28.584 2°55.299 18 11.7 10 21.4
2005-10-19 08:06:10 51°28.776 2°55.347 18.3 11.7 9 21.6
2005-10-19 08:07:10 51°28.969 2°55.401 19.8 11.8 11 22.3
2005-10-19 08:08:10 51°29.163 2°55.451 18.5 12 11 24.6
2005-10-19 08:09:10 51°29.361 2°55.499 17.1 12 8 25.6
2005-10-19 08:10:10 51°29.559 2°55.554 17.4 11.9 10 26.6
2005-10-19 08:11:10 51°29.758 2°55.606 18.6 12.2 11 27.4
2005-10-19 08:12:10 51°29.959 2°55.664 17.7 12.4 9 29.8
2005-10-19 08:13:10 51°30.158 2°55.725 18.5 12.1 11 30.3
2005-10-19 08:14:08 51°30.35 2°55.776 18.3 12.3 9 31.3
2005-10-19 08:15:10 51°30.553 2°55.821 18.8 12 9 33.3
2005-10-19 08:16:10 51°30.747 2°55.864 18.6 11.7 10 35.6
2005-10-19 08:17:10 51°30.938 2°55.909 19.1 11.7 9 35.4
2005-10-19 08:18:10 51°31.131 2°55.949 18.6 11.7 7 26.1
2005-10-19 08:19:10 51°31.322 2°56.007 17.8 11.5 10 17
2005-10-19 08:20:10 51°31.508 2°56.06 18 11.4 11 17.7
2005-10-19 08:21:10 51°31.692 2°56.12 19.1 11.4 11 18.1
2005-10-19 08:22:10 51°31.876 2°56.176 19.2 11.5 12 19.3
2005-10-19 08:23:10 51°32.061 2°56.232 19.3 11.6 11 19.1
2005-10-19 08:24:10 51°32.247 2°56.286 18.5 11.5 10 18.7
2005-10-19 08:25:10 51°32.435 2°56.34 15.3 11.7 4 18.9
2005-10-19 08:26:10 51°32.626 2°56.373 13.4 11.5 5 22
2005-10-19 08:27:10 51°32.817 2°56.41 15.8 11.5 8 22.7
2005-10-19 08:28:10 51°33.011 2°56.439 12.1 11.9 5 24.5
2005-10-19 08:29:10 51°33.205 2°56.463 12.7 11.7 6 26.1
2005-10-19 08:30:10 51°33.402 2°56.483 12 12 5 25.3
2005-10-19 08:31:10 51°33.602 2°56.492 10.2 11.8 1 25.6
2005-10-19 08:32:10 51°33.796 2°56.504 11.3 11.7 4 27.5
2005-10-19 08:33:10 51°33.992 2°56.48 6 11.8 355 26.3
2005-10-19 08:34:10 51°34.184 2°56.448 6.1 11.2 355 29.8
2005-10-19 08:35:10 51°34.376 2°56.418 6 11.5 355 30.4
2005-10-19 08:36:10 51°34.547 2°56.295 329.2 12.5 316 30.6
2005-10-19 08:37:10 51°34.618 2°55.967 288.1 13.7 275 31.6
2005-10-19 08:38:10 51°34.602 2°55.595 268.8 14.3 261 31
2005-10-19 08:39:10 51°34.548 2°55.221 259.7 14.4 251 31.6
2005-10-19 08:40:10 51°34.452 2°54.864 249.6 14.7 245 31.1
2005-10-19 08:41:10 51°34.348 2°54.51 251.1 14.6 245 28.6
2005-10-19 08:42:10 51°34.245 2°54.156 251.2 14.6 244 27.8
2005-10-19 08:43:10 51°34.139 2°53.805 249.6 14.6 244 31.4
2005-10-19 08:44:10 51°34.033 2°53.456 250 14.6 244 32.2
2005-10-19 08:45:10 51°33.925 2°53.105 249 14.7 244 28.5
2005-10-19 08:46:10 51°33.818 2°52.754 249.6 14.7 244 31.2
2005-10-19 08:47:10 51°33.713 2°52.4 250.5 14.8 245 32.4
2005-10-19 08:48:10 51°33.606 2°52.049 250.5 14.6 245 33.2
2005-10-19 08:49:10 51°33.498 2°51.698 250.3 14.8 242 32.4
2005-10-19 08:50:10 51°33.391 2°51.344 250.6 14.7 243 33.9
2005-10-19 08:51:10 51°33.283 2°50.994 250 14.7 243 32.3
2005-10-19 08:52:10 51°33.177 2°50.639 250.8 14.7 245 33.1
2005-10-19 08:53:10 51°33.069 2°50.284 249.8 14.8 244 32.1
2005-10-19 08:54:10 51°32.96 2°49.928 251.1 14.9 245 31.5
2005-10-19 08:55:10 51°32.852 2°49.569 250.4 15 243 33.4
2005-10-19 08:56:10 51°32.743 2°49.213 250 14.8 243 33.2
2005-10-19 08:57:10 51°32.634 2°48.862 250 14.6 245 28.9
2005-10-19 08:58:10 51°32.526 2°48.509 250.6 14.7 243 32.3
2005-10-19 08:59:10 51°32.417 2°48.155 251 14.8 245 32.5
2005-10-19 09:00:10 51°32.311 2°47.801 253.3 14.8 245 31
2005-10-19 09:01:10 51°32.209 2°47.441 251.8 14.9 245 30.9
2005-10-19 09:02:10 51°32.106 2°47.081 251.8 14.9 244 30.3
2005-10-19 09:03:10 51°32.004 2°46.718 252.4 15 246 28.1
2005-10-19 09:04:10 51°31.905 2°46.359 252.7 14.7 247 29.4
2005-10-19 09:05:10 51°31.804 2°46.001 252.5 14.7 246 34
2005-10-19 09:06:10 51°31.704 2°45.644 252.5 14.5 246 32.7
2005-10-19 09:07:10 51°31.604 2°45.288 252.4 14.6 247 33.4
2005-10-19 09:08:08 51°31.508 2°44.942 251.9 14.8 246 35.1
2005-10-19 09:09:10 51°31.404 2°44.574 251.8 14.6 245 33.3
2005-10-19 09:10:10 51°31.304 2°44.218 252.4 14.7 246 32.7
2005-10-19 09:11:10 51°31.204 2°43.862 252.5 14.6 246 33.1
2005-10-19 09:12:10 51°31.106 2°43.505 251.9 14.6 244 29.9
2005-10-19 09:13:10 51°31.007 2°43.148 252.5 14.6 246 25.1
2005-10-19 09:14:10 51°30.901 2°42.792 249 14.6 243 30.4
2005-10-19 09:15:10 51°30.791 2°42.443 248.8 14.7 243 31.5
2005-10-19 09:16:10 51°30.682 2°42.095 249.6 14.6 243 33
2005-10-19 09:17:10 51°30.573 2°41.748 249.7 14.6 243 33.9
2005-10-19 09:18:10 51°30.468 2°41.403 250.1 14.3 245 35.3
2005-10-19 09:19:10 51°30.364 2°41.058 249.8 14.4 244 34.5
2005-10-19 09:20:10 51°30.255 2°40.714 248.8 14.4 244 35.6
2005-10-19 09:21:10 51°30.147 2°40.371 249.4 14.4 243 36.5
2005-10-19 09:22:10 51°30.04 2°40.026 248.7 14.4 243 37.9
2005-10-19 09:23:10 51°29.917 2°39.704 231.7 13.9 224 36.9
2005-10-19 09:24:10 51°29.699 2°39.639 172.8 13.8 171 34.9
2005-10-19 09:25:10 51°29.48 2°39.735 160.3 13.5 163 35.1
2005-10-19 09:26:10 51°29.27 2°39.864 153.6 13.3 157 37.6
2005-10-19 09:27:10 51°29.064 2°39.999 153 13.6 157 37.1
2005-10-19 09:28:10 51°28.856 2°40.133 153.8 13.5 158 35.4
2005-10-19 09:29:10 51°28.733 2°40.368 104.5 11.3 106 37.1
2005-10-19 09:30:10 51°28.783 2°40.65 67.3 11.2 72 36.4
2005-10-19 09:31:10 51°28.886 2°40.896 58.2 10.9 53 34.6
2005-10-19 09:32:10 51°28.993 2°41.14 58.3 11 55 34.2
2005-10-19 09:33:10 51°29.095 2°41.381 58.1 10.9 55 33.5
2005-10-19 09:34:10 51°29.202 2°41.622 55.1 11.1 52 31.8
2005-10-19 09:35:10 51°29.334 2°41.837 50 11.3 46 33.6
2005-10-19 09:36:10 51°29.469 2°42.044 49.3 11.3 47 32.1
2005-10-19 09:37:10 51°29.6 2°42.251 48.8 11 45 34
2005-10-19 09:38:10 51°29.729 2°42.463 49.3 11.3 44 35.3
2005-10-19 09:39:10 51°29.855 2°42.688 56.1 11.2 51 32.1
2005-10-19 09:40:10 51°29.93 2°42.966 71.4 11.7 73 30.1
2005-10-19 09:41:10 51°29.993 2°43.254 70.9 11.5 69 31.6
2005-10-19 09:42:10 51°30.057 2°43.541 70 11.3 70 29.8
2005-10-19 09:43:10 51°30.123 2°43.83 70.4 11.4 70 29.9
2005-10-19 09:44:10 51°30.191 2°44.115 69.1 11.6 68 34.1
2005-10-19 09:45:10 51°30.257 2°44.407 69.3 11.3 69 32.2
2005-10-19 09:46:10 51°30.325 2°44.695 70.2 11.5 69 31.8
2005-10-19 09:47:10 51°30.393 2°44.978 68.4 11.5 67 32.3
2005-10-19 09:48:10 51°30.46 2°45.267 69.3 11.3 68 32
2005-10-19 09:49:10 51°30.53 2°45.546 67.5 11.3 66 30.7
2005-10-19 09:50:10 51°30.599 2°45.826 67.3 11.3 65 29.7
2005-10-19 09:51:10 51°30.678 2°46.103 66.5 11.5 69 31.6
2005-10-19 09:52:10 51°30.753 2°46.385 67.5 11.5 66 26.4
2005-10-19 09:53:10 51°30.83 2°46.662 66 11.3 64 27.2
2005-10-19 09:54:10 51°30.904 2°46.945 69.1 11.6 70 27.8
2005-10-19 09:55:10 51°30.988 2°47.218 62.5 11.4 61 27.8
2005-10-19 09:56:10 51°31.077 2°47.483 63.2 11.2 64 27.6
2005-10-19 09:57:10 51°31.165 2°47.752 63.4 11.4 64 28.8
2005-10-19 09:58:10 51°31.249 2°48.021 66 11.2 64 29.8
2005-10-19 09:59:10 51°31.337 2°48.288 61.6 11.3 63 29.8
2005-10-19 10:00:10 51°31.425 2°48.554 62.6 11.3 59 29.8
2005-10-19 10:01:10 51°31.515 2°48.821 63.6 11.5 62 29.6
2005-10-19 10:02:10 51°31.603 2°49.087 60.7 11.5 62 28
2005-10-19 10:03:10 51°31.69 2°49.359 64.1 11.1 63 30.1
2005-10-19 10:04:10 51°31.78 2°49.623 63.8 11.2 62 27.7
2005-10-19 10:05:10 51°31.866 2°49.888 63.8 11.3 64 30.2
2005-10-19 10:06:10 51°31.956 2°50.152 63.9 11.4 64 30.2
2005-10-19 10:07:10 51°32.042 2°50.42 64.5 11.1 63 28.6
2005-10-19 10:08:10 51°32.128 2°50.689 62.9 11.5 60 31.9
2005-10-19 10:09:10 51°32.216 2°50.958 63.9 11.2 63 31.2
2005-10-19 10:10:10 51°32.303 2°51.232 64.1 11.6 63 31.9
2005-10-19 10:11:10 51°32.393 2°51.507 63.8 11.4 62 28.9
2005-10-19 10:12:10 51°32.482 2°51.784 63.3 11.6 62 28.7
2005-10-19 10:13:10 51°32.57 2°52.057 65 11.5 63 29.3
2005-10-19 10:14:10 51°32.658 2°52.329 64.7 11.3 64 27.5
2005-10-19 10:15:10 51°32.748 2°52.599 63.2 11.6 64 28.7
2005-10-19 10:16:10 51°32.837 2°52.878 65.9 11.8 65 27.2
2005-10-19 10:17:10 51°32.928 2°53.151 63.5 11.3 61 29
2005-10-19 10:18:10 51°33.018 2°53.421 62.8 11.4 61 26.9
2005-10-19 10:19:10 51°33.11 2°53.694 61.6 11.7 59 27.5
2005-10-19 10:20:10 51°33.201 2°53.966 63.8 11.5 62 26.5
2005-10-19 10:21:10 51°33.29 2°54.245 64 11.7 64 26.7
2005-10-19 10:22:10 51°33.385 2°54.526 63.6 12 62 27.7
2005-10-19 10:23:10 51°33.477 2°54.797 62.7 11.7 60 26.9
2005-10-19 10:24:10 51°33.568 2°55.075 63.5 11.7 60 27.3
2005-10-19 10:25:10 51°33.662 2°55.354 62.9 11.8 61 28.5
2005-10-19 10:26:10 51°33.755 2°55.623 64.7 11.6 62 29.2
2005-10-19 10:27:10 51°33.848 2°55.905 63.6 11.9 60 28.4
2005-10-19 10:28:10 51°33.936 2°56.183 63 11.5 60 27.9
2005-10-19 10:29:10 51°34.03 2°56.451 63.7 11.7 63 29
2005-10-19 10:30:10 51°34.122 2°56.726 62.4 11.6 64 29.9
2005-10-19 10:31:10 51°34.211 2°57 64.6 11.5 63 28.6
2005-10-19 10:32:10 51°34.306 2°57.272 62.9 11.6 59 27
2005-10-19 10:33:10 51°34.396 2°57.543 62.8 11.9 62 28.7
2005-10-19 10:34:10 51°34.486 2°57.823 63.6 11.5 64 28.8
2005-10-19 10:35:10 51°34.578 2°58.094 62.6 11.4 61 29.3
2005-10-19 10:36:10 51°34.668 2°58.369 63.8 12 64 25.9
2005-10-19 10:37:10 51°34.753 2°58.65 63.1 11.7 63 28.9
2005-10-19 10:38:10 51°34.841 2°58.925 66.4 11.4 65 28
2005-10-19 10:39:10 51°34.922 2°59.205 67 11.4 63 27.7
2005-10-19 10:40:10 51°35.009 2°59.477 64.5 11.3 60 30.5
2005-10-19 10:41:10 51°35.1 2°59.748 64.5 11.6 64 29
2005-10-19 10:42:10 51°35.184 3°0.024 66 11.6 66 26.3
2005-10-19 10:43:10 51°35.198 3°0.333 95.4 12 100 28.4
2005-10-19 10:44:10 51°35.103 3°0.626 125.5 12.8 128 23.3
2005-10-19 10:45:10 51°34.949 3°0.873 133.1 13.1 138 22.1
2005-10-19 10:46:10 51°34.752 3°1.035 165 13.6 167 19.5
2005-10-19 10:47:10 51°34.541 3°0.935 220.6 13.5 222 15.7
2005-10-19 10:48:10 51°34.41 3°0.64 243.5 13.6 237 15.9
2005-10-19 10:49:10 51°34.29 3°0.33 246.7 13.7 240 16.1
2005-10-19 10:50:10 51°34.176 3°0.013 246.9 13.7 240 18.2
2005-10-19 10:51:10 51°34.061 2°59.697 247.1 13.7 239 19.4
2005-10-19 10:52:10 51°33.949 2°59.379 247.7 13.6 242 20.4
2005-10-19 10:53:10 51°33.836 2°59.065 246 13.7 240 20.9
2005-10-19 10:54:10 51°33.725 2°58.749 247.2 13.6 239 21.8
2005-10-19 10:55:10 51°33.614 2°58.434 247.1 13.6 241 21.3
2005-10-19 10:56:10 51°33.503 2°58.119 246.8 13.5 241 20.8
2005-10-19 10:57:10 51°33.391 2°57.804 246.2 13.5 240 23.3
2005-10-19 10:58:10 51°33.274 2°57.494 245 13.5 239 22
2005-10-19 10:59:10 51°33.156 2°57.185 244.5 13.5 238 23.1
2005-10-19 11:00:10 51°33.035 2°56.878 244.3 13.7 238 25.3
2005-10-19 11:01:10 51°32.915 2°56.571 244.6 13.6 238 24.6
2005-10-19 11:02:10 51°32.794 2°56.263 244.4 13.7 237 25
2005-10-19 11:03:10 51°32.673 2°55.956 244.6 13.5 237 23.4
2005-10-19 11:04:10 51°32.546 2°55.655 241.9 13.6 235 20.7
2005-10-19 11:05:10 51°32.42 2°55.357 241.6 13.5 236 22.5
2005-10-19 11:06:10 51°32.293 2°55.06 242.2 13.4 236 23.4
2005-10-19 11:07:10 51°32.168 2°54.764 242.5 13.5 237 22.5
2005-10-19 11:08:10 51°32.044 2°54.466 241.8 13.4 236 21.8
2005-10-19 11:09:10 51°31.92 2°54.172 242.9 13.3 236 22.8
2005-10-19 11:10:10 51°31.799 2°53.878 242.4 13.3 237 22.7
2005-10-19 11:11:10 51°31.676 2°53.584 241.9 13.3 237 22.3
2005-10-19 11:12:10 51°31.555 2°53.289 242.6 13.3 236 22.5
2005-10-19 11:13:10 51°31.432 2°52.998 242.8 13.1 237 20.6
2005-10-19 11:14:10 51°31.311 2°52.706 242.4 13.1 236 22
2005-10-19 11:15:10 51°31.189 2°52.415 242.6 13 237 22.9
2005-10-19 11:16:10 51°31.068 2°52.125 242.4 13.1 236 23.2
2005-10-19 11:17:10 51°30.946 2°51.836 242.3 13.1 236 22.3
2005-10-19 11:18:10 51°30.825 2°51.549 242.2 12.9 236 21.8
2005-10-19 11:19:10 51°30.704 2°51.261 242.9 13.1 237 22
2005-10-19 11:20:10 51°30.582 2°50.972 242.7 13.1 237 23.7
2005-10-19 11:21:10 51°30.459 2°50.685 241.5 13 235 21.6
2005-10-19 11:22:10 51°30.339 2°50.397 242 13 235 22.6
2005-10-19 11:23:10 51°30.219 2°50.108 242.5 13 236 24.8
2005-10-19 11:24:10 51°30.1 2°49.82 242 12.9 236 20.6
2005-10-19 11:25:10 51°29.98 2°49.536 242 12.9 236 23.4
2005-10-19 11:26:10 51°29.864 2°49.249 242.2 12.7 237 22.5
2005-10-19 11:27:10 51°29.748 2°48.963 242.1 12.9 238 24.4
2005-10-19 11:28:10 51°29.632 2°48.676 242.6 12.7 238 22.1
2005-10-19 11:29:10 51°29.517 2°48.392 242.4 12.7 238 25.8
2005-10-19 11:30:10 51°29.402 2°48.109 242.2 12.7 236 25.6
2005-10-19 11:31:10 51°29.289 2°47.828 241.9 12.5 237 25
2005-10-19 11:32:10 51°29.176 2°47.548 242.7 12.4 237 23
2005-10-19 11:33:10 51°29.065 2°47.267 242.7 12.5 239 26.5
2005-10-19 11:34:10 51°28.954 2°46.989 242.3 12.3 237 27.6
2005-10-19 11:35:10 51°28.843 2°46.713 242.3 12.2 239 27.5
2005-10-19 11:36:10 51°28.731 2°46.44 239.3 12.3 235 27.5
2005-10-19 11:37:10 51°28.611 2°46.176 238.4 12.1 234 29.2
2005-10-19 11:38:10 51°28.458 2°45.96 225.7 12.3 219 29
2005-10-19 11:39:10 51°28.302 2°45.748 225.8 12.2 221 29.2
2005-10-19 11:40:10 51°28.147 2°45.539 225.5 12.1 220 29.3
2005-10-19 11:41:10 51°27.994 2°45.33 226 12.1 220 29.2
2005-10-19 11:42:10 51°27.842 2°45.118 226.5 11.9 222 30.1
2005-10-19 11:43:10 51°27.691 2°44.906 225.6 12 222 29.9
2005-10-19 11:44:10 51°27.539 2°44.696 225.9 11.9 221 27.4
2005-10-19 11:45:10 51°27.387 2°44.487 225.9 12 221 28.7
2005-10-19 11:46:10 51°27.238 2°44.276 226.4 12 222 27.2
2005-10-19 11:47:10 51°27.091 2°44.058 226.5 12 224 28.4
2005-10-19 11:48:10 51°26.943 2°43.848 222.8 12.1 219 26.7
2005-10-19 11:49:10 51°26.789 2°43.642 224 11.9 220 26.5
2005-10-19 11:50:10 51°26.635 2°43.441 218.4 11.9 214 26.4
2005-10-19 11:51:10 51°26.462 2°43.284 213.9 12 207 27.8
2005-10-19 11:52:10 51°26.271 2°43.178 202.5 12.2 198 27.9
2005-10-19 11:53:10 51°26.081 2°43.074 203.2 12.1 197 25.2
2005-10-19 11:54:10 51°25.889 2°42.979 200.3 12.2 193 26.8
2005-10-19 11:55:10 51°25.692 2°42.913 195.5 12.3 191 28.5
2005-10-19 11:56:10 51°25.488 2°42.898 188.1 12.3 183 28.2
2005-10-19 11:57:10 51°25.283 2°42.887 188.8 12.2 182 26.1
2005-10-19 11:58:10 51°25.079 2°42.875 188.7 12.3 181 27.2
2005-10-19 11:59:10 51°24.874 2°42.891 184.3 12.4 178 22.9
2005-10-19 12:00:10 51°24.669 2°42.912 183.8 12.4 177 25.8
2005-10-19 12:01:10 51°24.462 2°42.943 182.8 12.4 172 19
2005-10-19 12:02:10 51°24.26 2°42.979 188.9 12 183 25.6
2005-10-19 12:03:10 51°24.058 2°42.96 190.4 12.4 182 27.9
2005-10-19 12:04:10 51°23.854 2°42.947 189.4 12.2 181 28.6
2005-10-19 12:05:10 51°23.651 2°42.937 191.6 12.1 184 31.4
2005-10-19 12:06:10 51°23.454 2°42.897 195.4 12 188 28.1
2005-10-19 12:07:10 51°23.259 2°42.856 191.8 11.8 184 28.2
2005-10-19 12:08:10 51°23.061 2°42.865 182.5 11.9 173 29.2
2005-10-19 12:09:10 51°22.864 2°42.916 178.8 12.1 172 29.4
2005-10-19 12:10:10 51°22.667 2°42.975 178 12.2 169 28.5
2005-10-19 12:11:10 51°22.47 2°43.033 178.6 12.1 168 28.9
2005-10-19 12:12:10 51°22.271 2°43.095 177.7 12.3 168 27.9
2005-10-19 12:13:10 51°22.071 2°43.158 177.8 12.2 168 28.5
2005-10-19 12:14:10 51°21.874 2°43.229 175.7 12.2 161 23.8
2005-10-19 12:15:10 51°21.687 2°43.384 161.7 12.8 150 25.8
2005-10-19 12:16:10 51°21.501 2°43.547 161.8 12.7 152 25.5
2005-10-19 12:17:10 51°21.315 2°43.711 161.3 12.7 151 24.9
2005-10-19 12:18:10 51°21.127 2°43.871 162.2 12.7 151 26.6
2005-10-19 12:19:10 51°20.94 2°44.032 161.9 12.8 152 28.7
2005-10-19 12:20:10 51°20.753 2°44.193 163 12.7 152 30.2
2005-10-19 12:21:10 51°20.577 2°44.384 154.4 13 144 30.7
2005-10-19 12:22:10 51°20.409 2°44.58 155 12.5 143 29.5
2005-10-19 12:23:10 51°20.241 2°44.778 155.4 12.6 143 27.8
2005-10-19 12:24:10 51°20.073 2°44.975 154.2 12.5 143 26.7
2005-10-19 12:25:10 51°19.91 2°45.19 152.2 12.8 141 24.7
2005-10-19 12:26:10 51°19.746 2°45.407 152.4 12.9 139 18.9
2005-10-19 12:27:10 51°19.579 2°45.632 152.8 13.3 140 15.2
2005-10-19 12:28:10 51°19.406 2°45.851 152.5 13.3 142 19.1
2005-10-19 12:29:10 51°19.234 2°46.069 152.9 13 142 22.4
2005-10-19 12:30:10 51°19.064 2°46.283 151.9 12.9 143 24.1
2005-10-19 12:31:10 51°18.899 2°46.507 149.5 12.8 138 24.2
2005-10-19 12:32:10 51°18.739 2°46.736 150.4 13 138 23.3
2005-10-19 12:33:10 51°18.576 2°46.962 150.2 13 139 21.9
2005-10-19 12:34:10 51°18.413 2°47.186 149.9 12.9 139 20.6
2005-10-19 12:35:10 51°18.25 2°47.41 150.6 13 139 16.8
2005-10-19 12:36:10 51°18.087 2°47.636 150.5 13 139 15.1
2005-10-19 12:37:10 51°17.924 2°47.859 150.9 13 139 14
2005-10-19 12:38:10 51°17.76 2°48.084 148.7 13.3 138 13.1
2005-10-19 12:39:10 51°17.598 2°48.317 148 13.1 138 13
2005-10-19 12:40:10 51°17.444 2°48.563 144.4 13.3 135 13.3
2005-10-19 12:41:10 51°17.292 2°48.814 145.5 13 134 14.4
2005-10-19 12:42:10 51°17.138 2°49.061 146.2 13.1 135 14.6
2005-10-19 12:43:10 51°16.987 2°49.308 144.6 13.1 133 13.7
2005-10-19 12:44:10 51°16.838 2°49.542 146.9 12.3 135 12.8
2005-10-19 12:45:10 51°16.737 2°49.698 162.4 7.3 139 16.9
2005-10-19 12:46:10 51°16.653 2°49.79 173.1 5.9 148 17.7
2005-10-19 12:47:10 51°16.551 2°49.863 166.9 9.5 145 15.7
2005-10-19 12:48:10 51°16.406 2°50.093 144.8 13 132 14.3
2005-10-19 12:49:10 51°16.261 2°50.351 141.6 13.1 131 13.2
2005-10-19 12:50:10 51°16.117 2°50.619 141.2 13.4 131 13.7
2005-10-19 12:51:10 51°15.976 2°50.888 140.8 13.3 130 16.1
2005-10-19 12:52:10 51°15.835 2°51.162 140.1 13.3 129 16.3
2005-10-19 12:53:10 51°15.695 2°51.437 141.3 13.4 128 16.2
2005-10-19 12:54:10 51°15.555 2°51.712 142 13.3 131 16
2005-10-19 12:55:10 51°15.415 2°51.986 141.2 13.2 129 15.5
2005-10-19 12:56:10 51°15.276 2°52.257 139.8 13.2 128 14.9
2005-10-19 12:57:10 51°15.141 2°52.534 139.8 13.1 128 14.1
2005-10-19 12:58:10 51°15.018 2°52.826 131.3 13.4 120 14.2
2005-10-19 12:59:10 51°14.908 2°53.136 128.7 13.4 118 13.6
2005-10-19 13:00:10 51°14.797 2°53.443 129.8 13.1 121 13.4
2005-10-19 13:01:10 51°14.704 2°53.765 119.7 13.7 111 13.3
2005-10-19 13:02:10 51°14.63 2°54.112 121 13.8 109 13.7
2005-10-19 13:03:10 51°14.551 2°54.434 124.5 11.8 113 13.7
2005-10-19 13:04:10 51°14.482 2°54.567 183.6 4 152 13.8
2005-10-19 13:05:10 51°14.455 2°54.567 234.6 0.8 218 13.8
2005-10-19 13:06:10 51°14.448 2°54.556 242.3 0.5 264 13.8
2005-10-19 13:07:10 51°14.454 2°54.54 254.3 0.8 317 13.8
2005-10-19 13:08:10 51°14.469 2°54.508 279.1 3 312 13.7
2005-10-19 13:09:10 51°14.553 2°54.512 16.8 6.7 29 13.8
2005-10-19 13:10:10 51°14.581 2°54.684 127.8 7 110 13.3
2005-10-19 13:11:10 51°14.474 2°54.874 148 11.5 133 13.5
2005-10-19 13:12:10 51°14.347 2°55.122 138.8 11.9 136 13.8
2005-10-19 13:13:10 51°14.21 2°55.33 145.1 10.5 141 13.5
2005-10-19 13:14:10 51°14.092 2°55.434 158.5 7.2 155 13.4
2005-10-19 13:15:10 51°13.989 2°55.51 158.4 6.8 155 13.5
2005-10-19 13:16:10 51°13.881 2°55.592 157.3 7.9 153 12.9
2005-10-19 13:17:10 51°13.768 2°55.693 148.5 7.6 144 12.5
2005-10-19 13:18:10 51°13.692 2°55.829 128.8 5.8 125 12.2
2005-10-19 13:19:10 51°13.647 2°55.938 126.2 4.5 122 12.4
2005-10-19 13:20:10 51°13.617 2°56.025 119 3.4 113 13.3
2005-10-19 13:21:10 51°13.605 2°56.085 117.2 1.8 111 10.3
2005-10-19 13:22:10 51°13.603 2°56.099 126 0.5 120 9.5